Thala, Tunisia
Current Conditions -  °F | °C
As of 2:00 AM on Saturday 29 Nov 2014 (Local Time) from DABS Reporting Station
Scattered Clouds Scattered Clouds  
Wind Chill: 59°   Ceiling: Unl
Heat Index: 59°   Visibility: 6mi
Dew Point: 39°   Wind: 2mph
Humidity: 48%   Direction: 80°E
Pressure: 29.77"   Gusts: NA
Location:  35.58°N, 8.67°E
Report Text: DABS 290100Z 08002KT 9999 SCT040 SCT100 15/04 Q1008
Loading
Personal Weather Stations






























Interactive Weather Map New forecast layout! Learn more

10-Day Weather Forecast

Advertisements
Track Severe Weather on mobile